This is the latest recevied weather packets stored in our database for station/object YB3RDW-13. If no packets are shown the sender has not sent any weather packets the latest 1 day(s).
| Time | Temp. | Humidity | Pressure | Rain* | Wind** | Luminosity | Snow |
|---|---|---|---|---|---|---|---|
| 1778033219 | 31.11° C | 72% | 1013 hPa | 0 mm | 0.45 m/s, 218° | 446 W/m² | - |
| 1778032918 | 31.67° C | 71% | 1013 hPa | 0 mm | 2.68 m/s, 297° | 453 W/m² | - |
| 1778032617 | 31.67° C | 73% | 1013 hPa | 0 mm | 2.24 m/s, 265° | 419 W/m² | - |
| 1778032317 | 31.11° C | 74% | 1013 hPa | 0 mm | 0.45 m/s, 158° | 434 W/m² | - |
| 1778032017 | 30.56° C | 76% | 1013 hPa | 0 mm | 0.45 m/s, 121° | 397 W/m² | - |
| 1778031717 | 30.56° C | 76% | 1013 hPa | 0 mm | 1.34 m/s, 219° | 430 W/m² | - |
| 1778031417 | 30.56° C | 76% | 1013 hPa | 0 mm | 0 m/s | 191 W/m² | - |
| 1778031117 | 31.11° C | 76% | 1013 hPa | 0 mm | 0.45 m/s, 25° | 421 W/m² | - |
| 1778030817 | 30.56° C | 79% | 1013 hPa | 0 mm | 0.89 m/s, 172° | 384 W/m² | - |
| 1778030518 | 30° C | 81% | 1013 hPa | 0 mm | 0.45 m/s, 177° | 384 W/m² | - |
| 1778030218 | 29.44° C | 81% | 1013 hPa | 0 mm | 1.34 m/s, 179° | 272 W/m² | - |
| 1778029917 | 29.44° C | 81% | 1013 hPa | 0 mm | 0.45 m/s, 123° | 306 W/m² | - |
| 1778029624 | 29.44° C | 82% | 1013 hPa | 0 mm | 0.45 m/s, 152° | 333 W/m² | - |
| 1778029318 | 29.44° C | 83% | 1013 hPa | 0 mm | 0.45 m/s, 151° | 285 W/m² | - |
| 1778029018 | 29.44° C | 84% | 1013 hPa | 0 mm | 0.89 m/s, 127° | 279 W/m² | - |
| 1778028718 | 29.44° C | 83% | 1013 hPa | 0 mm | 0.45 m/s, 150° | 269 W/m² | - |
| 1778028417 | 28.89° C | 83% | 1013 hPa | 0 mm | 0 m/s | 256 W/m² | - |
| 1778028117 | 28.89° C | 84% | 1013 hPa | 0 mm | 0.45 m/s, 150° | 246 W/m² | - |
| 1778027817 | 28.89° C | 85% | 1013 hPa | 0 mm | 0.45 m/s, 170° | 236 W/m² | - |
| 1778027517 | 28.33° C | 87% | 1013 hPa | 0 mm | 0 m/s | 226 W/m² | - |
| 1778027217 | 28.33° C | 87% | 1013 hPa | 0 mm | 0.45 m/s, 159° | 210 W/m² | - |
| 1778026918 | 27.78° C | 89% | 1013 hPa | 0 mm | 0 m/s | 196 W/m² | - |
| 1778026617 | 27.78° C | 89% | 1013 hPa | 0 mm | 0.45 m/s, 144° | 183 W/m² | - |
| 1778026318 | 27.22° C | 90% | 1012 hPa | 0 mm | 0.45 m/s, 123° | 173 W/m² | - |
| 1778026017 | 27.22° C | 90% | 1012 hPa | 0 mm | 0.89 m/s, 86° | 162 W/m² | - |
* Rain latest hour (hover to see other rain measurements)
** Current wind speed in m/s (hover to see current wind gust speed)